KHIB

Range Regional Airport

Airport
ICAO code
KHIB
Summary
ICAO Region
NAM
ICAO Territory
Location

Hibbing, Minnesota,

Elevation
1354 ft
Coordinates
47° 23' 11" N , 92° 50' 20" W
KCC
Airport CFIT
Altimeter Temperature Error Correction
Airport GND
Aircraft Ground De/Anti Icing
Airport RE
Landing on Contaminated Runways
Metar
KHIB 151653Z AUTO 14007KT 10SM OVC100 15/12 A2997 RMK AO2 RAE00 SLP151 P0000 T01500122

Description

Range Regional Airport is a public use airport located 7 km southeast of the central business district of Hibbing, in St. Louis County, Minnesota.

Climatology

Humid Continental climate (Köppen climate classification Dfb) - Variable weather patterns and a large seasonal temperature variance. Summers are often warm and humid with frequent thunderstorms and winters can be very cold with frequent snowfall and persistent snow cover.

Airport map

Aerial View

SKYbrary Partners:

Safety knowledge contributed by: